Time;durP1;ratioP1;P1;durP2;ratioP2;P2;SDS_P1;SDS_P2;PMS_P1;PMS_P2;Temp;Humidity;BMP_temperature;BMP_pressure;BME280_temperature;BME280_humidity;BME280_pressure;Samples;Min_cycle;Max_cycle;Signal;HPM_P1;HPM_P2
2024/03/02 00:00:13;;;;;;;;;3.00;3.00;;;;;;;;5093488;28;11151;-81
2024/03/02 00:02:42;;;;;;;;;2.25;2.25;;;;;;;;5095273;28;11397;-83
2024/03/02 00:05:13;;;;;;;;;3.25;3.25;;;;;;;;5094284;28;11116;-86
2024/03/02 00:07:49;;;;;;;;;3.75;3.75;;;;;;;;5093031;28;11108;-85
2024/03/02 00:10:37;;;;;;;;;4.50;4.50;;;;;;;;5093496;28;11231;-85
2024/03/02 00:13:13;;;;;;;;;4.25;3.00;;;;;;;;5092828;28;11282;-87
2024/03/02 00:15:46;;;;;;;;;2.00;2.00;;;;;;;;5092331;28;11131;-84
2024/03/02 00:18:15;;;;;;;;;2.00;2.00;;;;;;;;5092656;28;11308;-84
2024/03/02 00:20:43;;;;;;;;;6.00;3.75;;;;;;;;5091448;28;11231;-87
2024/03/02 00:23:11;;;;;;;;;3.00;3.00;;;;;;;;5090066;28;10993;-86
2024/03/02 00:25:42;;;;;;;;;2.00;2.00;;;;;;;;5090784;28;11043;-85
2024/03/02 00:28:18;;;;;;;;;4.00;4.00;;;;;;;;5092111;28;12323;-86
2024/03/02 00:31:02;;;;;;;;;3.00;3.00;;;;;;;;5084329;28;11149;-85
2024/03/02 00:33:33;;;;;;;;;3.75;3.75;;;;;;;;5088099;28;11170;-84
2024/03/02 00:36:03;;;;;;;;;7.00;1.75;;;;;;;;5090023;28;11238;-85
2024/03/02 00:38:31;;;;;;;;;3.00;3.00;;;;;;;;5089581;28;11421;-84
2024/03/02 00:41:00;;;;;;;;;2.00;2.00;;;;;;;;5088137;28;11100;-85
2024/03/02 00:43:58;;;;;;;;;6.00;3.00;;;;;;;;5089417;28;11083;-84
2024/03/02 00:46:25;;;;;;;;;6.00;3.50;;;;;;;;5053682;28;10895;-86
2024/03/02 00:48:55;;;;;;;;;2.00;2.00;;;;;;;;5090087;28;11258;-86
2024/03/02 00:51:24;;;;;;;;;1.00;1.00;;;;;;;;5090429;28;11077;-84
2024/03/02 00:53:52;;;;;;;;;1.00;1.00;;;;;;;;5091435;28;10862;-84
2024/03/02 00:56:21;;;;;;;;;1.00;1.00;;;;;;;;5090603;28;11021;-86
2024/03/02 00:58:48;;;;;;;;;1.00;1.00;;;;;;;;5089391;28;11039;-82
2024/03/02 01:01:16;;;;;;;;;3.00;1.00;;;;;;;;5079529;28;11042;-83
2024/03/02 01:03:44;;;;;;;;;2.00;0.50;;;;;;;;5089932;28;11032;-85
2024/03/02 01:06:11;;;;;;;;;2.00;1.75;;;;;;;;5078043;28;10955;-81
2024/03/02 01:08:39;;;;;;;;;3.00;3.00;;;;;;;;5089100;28;11099;-84
2024/03/02 01:11:06;;;;;;;;;4.00;2.00;;;;;;;;5088976;28;11289;-81
2024/03/02 01:13:37;;;;;;;;;3.00;3.00;;;;;;;;5088967;28;11342;-83
2024/03/02 01:16:07;;;;;;;;;2.25;2.00;;;;;;;;5089713;28;11301;-82
2024/03/02 01:18:37;;;;;;;;;2.00;2.00;;;;;;;;5088933;28;11120;-83
2024/03/02 01:21:07;;;;;;;;;1.25;1.00;;;;;;;;5089131;28;11272;-81
2024/03/02 01:23:33;;;;;;;;;2.25;1.00;;;;;;;;5087528;28;11176;-82
2024/03/02 01:26:01;;;;;;;;;1.00;1.00;;;;;;;;5089420;28;11825;-82
2024/03/02 01:28:28;;;;;;;;;2.25;2.25;;;;;;;;5091850;28;11127;-81
2024/03/02 01:30:56;;;;;;;;;1.25;1.25;;;;;;;;5094672;28;11071;-81
2024/03/02 01:33:24;;;;;;;;;1.75;1.50;;;;;;;;5095819;28;11952;-80
2024/03/02 01:35:51;;;;;;;;;1.75;1.75;;;;;;;;5094421;28;11048;-81
2024/03/02 01:38:19;;;;;;;;;2.00;1.00;;;;;;;;5093749;28;11237;-80
2024/03/02 01:40:46;;;;;;;;;1.75;1.75;;;;;;;;5094972;28;11096;-82
2024/03/02 01:43:14;;;;;;;;;1.25;1.25;;;;;;;;5095255;28;11100;-85
2024/03/02 01:45:41;;;;;;;;;1.25;1.00;;;;;;;;5093430;28;10956;-83
2024/03/02 01:48:09;;;;;;;;;2.00;2.00;;;;;;;;5095218;28;10932;-79
2024/03/02 01:50:37;;;;;;;;;0.50;0.50;;;;;;;;5093641;28;11143;-84
2024/03/02 01:53:05;;;;;;;;;1.00;1.00;;;;;;;;5090701;28;11166;-85
2024/03/02 01:55:34;;;;;;;;;2.00;2.00;;;;;;;;5091849;28;11039;-82
2024/03/02 01:58:02;;;;;;;;;2.75;1.00;;;;;;;;5089555;28;11144;-86
2024/03/02 02:00:30;;;;;;;;;2.00;2.00;;;;;;;;5087554;28;11447;-82
2024/03/02 02:02:57;;;;;;;;;2.00;2.00;;;;;;;;5088778;28;11202;-83
2024/03/02 02:05:26;;;;;;;;;1.25;1.25;;;;;;;;5088062;28;11158;-86
2024/03/02 02:07:53;;;;;;;;;2.00;2.00;;;;;;;;5088763;28;11478;-84
2024/03/02 02:10:21;;;;;;;;;2.75;1.00;;;;;;;;5088233;28;11370;-82
2024/03/02 02:12:48;;;;;;;;;2.00;2.00;;;;;;;;5088620;28;11162;-82
2024/03/02 02:15:28;;;;;;;;;0.00;0.00;;;;;;;;5089250;28;11205;-85
2024/03/02 02:17:55;;;;;;;;;1.00;1.00;;;;;;;;5090381;28;11154;-83
2024/03/02 02:20:23;;;;;;;;;2.00;1.00;;;;;;;;5089120;28;11923;-85
2024/03/02 02:23:02;;;;;;;;;1.25;1.25;;;;;;;;5093184;28;11170;-82
2024/03/02 02:25:30;;;;;;;;;1.50;1.00;;;;;;;;5095499;28;11194;-82
2024/03/02 02:27:58;;;;;;;;;2.50;1.00;;;;;;;;5092400;28;11261;-83
2024/03/02 02:30:26;;;;;;;;;1.50;1.50;;;;;;;;5092043;28;11199;-85
2024/03/02 02:32:54;;;;;;;;;1.50;1.50;;;;;;;;5092008;28;11127;-84
2024/03/02 02:35:21;;;;;;;;;2.00;0.75;;;;;;;;5079836;28;11551;-82
2024/03/02 02:37:49;;;;;;;;;0.75;0.75;;;;;;;;5091100;28;11041;-82
2024/03/02 02:40:19;;;;;;;;;0.00;0.00;;;;;;;;5092230;28;11153;-86
2024/03/02 02:42:46;;;;;;;;;2.25;1.00;;;;;;;;5104328;28;11105;-84
2024/03/02 02:45:14;;;;;;;;;0.75;0.75;;;;;;;;5091714;28;11191;-86
2024/03/02 02:47:41;;;;;;;;;1.00;1.00;;;;;;;;5091027;28;11188;-83
2024/03/02 02:50:09;;;;;;;;;1.00;1.00;;;;;;;;5092479;28;11033;-85
2024/03/02 02:52:39;;;;;;;;;1.25;1.00;;;;;;;;5091796;28;11262;-87
2024/03/02 02:55:08;;;;;;;;;1.00;1.00;;;;;;;;5091602;28;11203;-81
2024/03/02 02:57:41;;;;;;;;;1.25;1.25;;;;;;;;5085186;28;11233;-83
2024/03/02 03:00:14;;;;;;;;;1.00;1.00;;;;;;;;5080137;28;11176;-84
2024/03/02 03:02:47;;;;;;;;;1.00;1.00;;;;;;;;5092577;28;11062;-88
2024/03/02 03:05:15;;;;;;;;;0.50;0.50;;;;;;;;5092816;28;11263;-86
2024/03/02 03:07:48;;;;;;;;;4.25;2.00;;;;;;;;5094137;28;11138;-84
2024/03/02 03:10:15;;;;;;;;;1.00;1.00;;;;;;;;5091130;28;11535;-82
2024/03/02 03:12:47;;;;;;;;;0.50;0.50;;;;;;;;5091461;28;11175;-82
2024/03/02 03:15:17;;;;;;;;;1.00;1.00;;;;;;;;5090805;28;11120;-82
2024/03/02 03:17:47;;;;;;;;;1.00;1.00;;;;;;;;5092677;28;11278;-82
2024/03/02 03:20:17;;;;;;;;;2.00;1.00;;;;;;;;5080832;28;11454;-81
2024/03/02 03:22:44;;;;;;;;;0.00;0.00;;;;;;;;5094572;28;11284;-82
2024/03/02 03:25:12;;;;;;;;;0.00;0.00;;;;;;;;5106977;28;11306;-80
2024/03/02 03:27:39;;;;;;;;;2.00;2.00;;;;;;;;5095434;28;11088;-81
2024/03/02 03:30:09;;;;;;;;;1.00;1.00;;;;;;;;5093316;28;11421;-81
2024/03/02 03:32:36;;;;;;;;;0.00;0.00;;;;;;;;5094900;28;11124;-84
2024/03/02 03:35:04;;;;;;;;;0.50;0.00;;;;;;;;5093148;28;11223;-84
2024/03/02 03:37:32;;;;;;;;;2.25;1.00;;;;;;;;5091426;28;11088;-82
2024/03/02 03:40:00;;;;;;;;;2.75;1.50;;;;;;;;5090049;28;11189;-83
2024/03/02 03:42:28;;;;;;;;;0.00;0.00;;;;;;;;5090473;28;11402;-83
2024/03/02 03:44:55;;;;;;;;;1.00;1.00;;;;;;;;5090706;28;11438;-83
2024/03/02 03:47:26;;;;;;;;;2.00;0.00;;;;;;;;5090226;28;11395;-85
2024/03/02 03:49:53;;;;;;;;;1.50;0.75;;;;;;;;5090460;28;11413;-86
2024/03/02 03:52:21;;;;;;;;;1.00;1.00;;;;;;;;5090933;28;11440;-84
2024/03/02 03:54:48;;;;;;;;;0.50;0.50;;;;;;;;5090247;28;11400;-84
2024/03/02 03:57:18;;;;;;;;;1.00;1.00;;;;;;;;5090479;28;11412;-82
2024/03/02 03:59:49;;;;;;;;;0.00;0.00;;;;;;;;5090600;28;11465;-81
2024/03/02 04:02:16;;;;;;;;;0.00;0.00;;;;;;;;5090497;28;11081;-84
2024/03/02 04:04:45;;;;;;;;;0.00;0.00;;;;;;;;5089914;28;11102;-83
2024/03/02 04:07:12;;;;;;;;;0.50;0.00;;;;;;;;5093223;28;11170;-82
2024/03/02 04:09:39;;;;;;;;;1.00;1.00;;;;;;;;5093012;28;11104;-82
2024/03/02 04:12:07;;;;;;;;;1.00;1.00;;;;;;;;5091556;28;11240;-84
2024/03/02 04:14:34;;;;;;;;;1.50;0.00;;;;;;;;5090346;28;11117;-86
2024/03/02 04:17:01;;;;;;;;;0.00;0.00;;;;;;;;5103482;28;11023;-84
2024/03/02 04:19:29;;;;;;;;;3.00;0.00;;;;;;;;5090146;28;11091;-87
2024/03/02 04:21:59;;;;;;;;;0.00;0.00;;;;;;;;5090268;28;11805;-83
2024/03/02 04:24:27;;;;;;;;;0.50;0.50;;;;;;;;5086498;28;10958;-86
2024/03/02 04:26:54;;;;;;;;;0.75;0.00;;;;;;;;5095913;28;10940;-86
2024/03/02 04:29:21;;;;;;;;;0.00;0.00;;;;;;;;5097496;28;11038;-83
2024/03/02 04:31:48;;;;;;;;;1.00;1.00;;;;;;;;5099658;28;10842;-81
2024/03/02 04:34:16;;;;;;;;;1.00;0.00;;;;;;;;5093610;28;11068;-85
2024/03/02 04:36:43;;;;;;;;;0.00;0.00;;;;;;;;5090429;28;11142;-85
2024/03/02 04:39:11;;;;;;;;;0.00;0.00;;;;;;;;5089481;28;11084;-85
2024/03/02 04:41:39;;;;;;;;;1.00;0.00;;;;;;;;5089843;28;11058;-85
2024/03/02 04:44:07;;;;;;;;;0.50;0.50;;;;;;;;5090335;28;11006;-82
2024/03/02 04:46:35;;;;;;;;;2.00;0.00;;;;;;;;5087846;28;10941;-83
2024/03/02 04:49:02;;;;;;;;;0.00;0.00;;;;;;;;5089496;28;10875;-81
2024/03/02 04:51:30;;;;;;;;;0.00;0.00;;;;;;;;5088163;28;11698;-83
2024/03/02 04:53:57;;;;;;;;;0.75;0.75;;;;;;;;5089255;28;11753;-83
2024/03/02 04:56:44;;;;;;;;;0.00;0.00;;;;;;;;5087992;28;11748;-79
2024/03/02 04:59:11;;;;;;;;;1.00;1.00;;;;;;;;5088859;28;11034;-81
2024/03/02 05:01:38;;;;;;;;;0.00;0.00;;;;;;;;5090913;28;10974;-80
2024/03/02 05:04:06;;;;;;;;;1.00;1.00;;;;;;;;5090977;28;11052;-82
2024/03/02 05:06:33;;;;;;;;;2.00;0.00;;;;;;;;5081698;28;11157;-82
2024/03/02 05:09:00;;;;;;;;;0.00;0.00;;;;;;;;5090792;28;12146;-84
2024/03/02 05:12:02;;;;;;;;;0.00;0.00;;;;;;;;5081853;28;10958;-81
2024/03/02 05:14:29;;;;;;;;;0.00;0.00;;;;;;;;5094829;28;11045;-82
2024/03/02 05:16:56;;;;;;;;;0.00;0.00;;;;;;;;5094457;28;11101;-81
2024/03/02 05:19:23;;;;;;;;;0.00;0.00;;;;;;;;5094043;28;11099;-82
2024/03/02 05:21:51;;;;;;;;;0.25;0.25;;;;;;;;5095706;28;11641;-82
2024/03/02 05:24:18;;;;;;;;;0.00;0.00;;;;;;;;5090507;28;11049;-86
2024/03/02 05:26:47;;;;;;;;;0.25;0.25;;;;;;;;5089754;28;11046;-84
2024/03/02 05:29:14;;;;;;;;;0.00;0.00;;;;;;;;5091205;28;11126;-82
2024/03/02 05:31:42;;;;;;;;;0.00;0.00;;;;;;;;5092442;28;10990;-85
2024/03/02 05:34:09;;;;;;;;;0.00;0.00;;;;;;;;5109187;28;10957;-81
2024/03/02 05:36:38;;;;;;;;;1.00;1.00;;;;;;;;5092538;28;10961;-83
2024/03/02 05:39:08;;;;;;;;;0.00;0.00;;;;;;;;5076502;28;11143;-81
2024/03/02 05:41:36;;;;;;;;;0.25;0.25;;;;;;;;5089593;28;11042;-84
2024/03/02 05:44:05;;;;;;;;;0.00;0.00;;;;;;;;5089181;28;11175;-83
2024/03/02 05:46:32;;;;;;;;;0.00;0.00;;;;;;;;5086925;28;11024;-83
2024/03/02 05:49:00;;;;;;;;;0.00;0.00;;;;;;;;5087337;28;11131;-81
2024/03/02 05:51:27;;;;;;;;;2.00;0.25;;;;;;;;5088410;28;11115;-83
2024/03/02 05:53:54;;;;;;;;;1.00;1.00;;;;;;;;5087519;28;12067;-81
2024/03/02 05:56:22;;;;;;;;;0.00;0.00;;;;;;;;5087901;28;11311;-81
2024/03/02 05:59:00;;;;;;;;;0.50;0.50;;;;;;;;5090132;28;11056;-84
2024/03/02 06:01:30;;;;;;;;;2.00;2.00;;;;;;;;5088924;28;11122;-86
2024/03/02 06:03:59;;;;;;;;;2.25;1.00;;;;;;;;5088884;28;11429;-86
2024/03/02 06:06:27;;;;;;;;;1.00;1.00;;;;;;;;5087371;28;11533;-82
2024/03/02 06:08:55;;;;;;;;;2.50;1.25;;;;;;;;5087614;28;11106;-84
2024/03/02 06:11:22;;;;;;;;;1.25;1.00;;;;;;;;5087924;28;11403;-86
2024/03/02 06:13:49;;;;;;;;;0.00;0.00;;;;;;;;5086768;28;11164;-85
2024/03/02 06:16:16;;;;;;;;;1.00;1.00;;;;;;;;5088175;28;11071;-83
2024/03/02 06:18:45;;;;;;;;;1.00;0.50;;;;;;;;5087218;28;11307;-83
2024/03/02 06:21:12;;;;;;;;;1.00;0.50;;;;;;;;5088176;28;11257;-83
2024/03/02 06:23:39;;;;;;;;;0.25;0.25;;;;;;;;5087956;28;11141;-81
2024/03/02 06:26:07;;;;;;;;;0.00;0.00;;;;;;;;5096016;28;11425;-82
2024/03/02 06:28:36;;;;;;;;;0.50;0.50;;;;;;;;5092729;28;11812;-82
2024/03/02 06:31:04;;;;;;;;;0.50;0.50;;;;;;;;5088260;28;11155;-82
2024/03/02 06:33:31;;;;;;;;;3.00;1.00;;;;;;;;5088194;28;11398;-81
2024/03/02 06:36:00;;;;;;;;;0.00;0.00;;;;;;;;5088455;28;11264;-84
2024/03/02 06:38:32;;;;;;;;;0.00;0.00;;;;;;;;5088291;28;11157;-80
2024/03/02 06:40:59;;;;;;;;;1.00;1.00;;;;;;;;5088325;28;11059;-81
2024/03/02 06:43:26;;;;;;;;;2.75;2.00;;;;;;;;5088197;28;11141;-82
2024/03/02 06:45:53;;;;;;;;;2.00;1.00;;;;;;;;5098849;28;11572;-84
2024/03/02 06:48:21;;;;;;;;;1.00;1.00;;;;;;;;5089037;28;11230;-80
2024/03/02 06:50:48;;;;;;;;;1.00;1.00;;;;;;;;5087867;28;11350;-85
2024/03/02 06:53:17;;;;;;;;;1.00;1.00;;;;;;;;5088033;28;11116;-81
2024/03/02 06:55:45;;;;;;;;;2.75;0.00;;;;;;;;5090274;28;11025;-81
2024/03/02 06:58:15;;;;;;;;;1.00;1.00;;;;;;;;5090933;28;10980;-81
2024/03/02 07:00:43;;;;;;;;;3.00;1.50;;;;;;;;5086220;28;10966;-78
2024/03/02 07:03:13;;;;;;;;;1.00;1.00;;;;;;;;5093550;28;11136;-80
2024/03/02 07:05:40;;;;;;;;;1.25;0.75;;;;;;;;5094477;28;11109;-80
2024/03/02 07:08:08;;;;;;;;;2.00;1.00;;;;;;;;5095993;28;11173;-79
2024/03/02 07:10:37;;;;;;;;;2.50;1.00;;;;;;;;5100271;28;10960;-81
2024/03/02 07:13:04;;;;;;;;;1.50;0.00;;;;;;;;5097083;28;10981;-83
2024/03/02 07:15:49;;;;;;;;;0.50;0.25;;;;;;;;5096736;28;10958;-80
2024/03/02 07:18:20;;;;;;;;;2.00;0.75;;;;;;;;5094076;28;10954;-84
2024/03/02 07:20:55;;;;;;;;;0.00;0.00;;;;;;;;5090960;28;10953;-77
2024/03/02 07:23:26;;;;;;;;;0.00;0.00;;;;;;;;5099800;28;10971;-77
2024/03/02 07:25:56;;;;;;;;;0.00;0.00;;;;;;;;5090329;28;10890;-82
2024/03/02 07:28:23;;;;;;;;;0.00;0.00;;;;;;;;5090574;28;10764;-80
2024/03/02 07:31:01;;;;;;;;;1.50;0.00;;;;;;;;5096206;28;10591;-77
2024/03/02 07:33:28;;;;;;;;;1.00;1.00;;;;;;;;5094970;28;10718;-77
2024/03/02 07:35:56;;;;;;;;;1.00;1.00;;;;;;;;5090539;28;11835;-79
2024/03/02 07:38:23;;;;;;;;;0.75;0.75;;;;;;;;5090416;28;10742;-78
2024/03/02 07:40:50;;;;;;;;;2.25;1.25;;;;;;;;5089956;28;10668;-75
2024/03/02 07:43:20;;;;;;;;;2.00;1.00;;;;;;;;5092049;28;10729;-79
2024/03/02 07:45:47;;;;;;;;;2.00;1.50;;;;;;;;5094718;28;10603;-78
2024/03/02 07:48:14;;;;;;;;;1.00;1.00;;;;;;;;5093776;28;10681;-78
2024/03/02 07:50:42;;;;;;;;;2.75;0.75;;;;;;;;5091928;28;10774;-77
2024/03/02 07:53:10;;;;;;;;;2.75;2.75;;;;;;;;5089464;28;10670;-77
2024/03/02 07:55:37;;;;;;;;;1.00;1.00;;;;;;;;5090351;28;10783;-78
2024/03/02 07:58:07;;;;;;;;;1.00;1.00;;;;;;;;5089918;28;10522;-78
2024/03/02 08:00:36;;;;;;;;;2.50;1.00;;;;;;;;5090198;28;10538;-77
2024/03/02 08:03:06;;;;;;;;;2.00;0.00;;;;;;;;5090377;28;10539;-76
2024/03/02 08:05:36;;;;;;;;;2.00;2.00;;;;;;;;5090531;28;10508;-78
2024/03/02 08:08:06;;;;;;;;;2.00;2.00;;;;;;;;5103539;28;10520;-78
2024/03/02 08:10:41;;;;;;;;;3.00;1.25;;;;;;;;5092323;28;10591;-78
2024/03/02 08:13:09;;;;;;;;;3.00;1.00;;;;;;;;5078788;28;10607;-82
2024/03/02 08:15:37;;;;;;;;;2.25;1.00;;;;;;;;5089959;28;10366;-79
2024/03/02 08:18:05;;;;;;;;;1.50;1.50;;;;;;;;5089908;28;10358;-79
2024/03/02 08:20:33;;;;;;;;;1.00;1.00;;;;;;;;5088312;28;10322;-78
2024/03/02 08:23:00;;;;;;;;;1.25;1.25;;;;;;;;5090202;28;10308;-82
2024/03/02 08:25:27;;;;;;;;;1.50;1.50;;;;;;;;5101120;28;10419;-79
2024/03/02 08:27:54;;;;;;;;;0.25;0.25;;;;;;;;5090135;28;10341;-81
2024/03/02 08:30:22;;;;;;;;;2.00;2.00;;;;;;;;5089122;28;10206;-79
2024/03/02 08:32:50;;;;;;;;;2.75;1.00;;;;;;;;5089877;28;10301;-78
2024/03/02 08:35:18;;;;;;;;;1.00;1.00;;;;;;;;5088844;28;10234;-80
2024/03/02 08:37:45;;;;;;;;;2.75;1.00;;;;;;;;5090123;28;10154;-80
2024/03/02 08:40:13;;;;;;;;;0.75;0.75;;;;;;;;5089144;28;10148;-78
2024/03/02 08:42:40;;;;;;;;;2.00;2.00;;;;;;;;5090430;28;10223;-78
2024/03/02 08:45:08;;;;;;;;;0.00;0.00;;;;;;;;5091736;28;10116;-81
2024/03/02 08:47:36;;;;;;;;;0.25;0.25;;;;;;;;5093892;28;9927;-78
2024/03/02 08:50:06;;;;;;;;;0.00;0.00;;;;;;;;5095144;28;9927;-78
2024/03/02 08:52:33;;;;;;;;;0.00;0.00;;;;;;;;5095317;28;9993;-79
2024/03/02 08:55:00;;;;;;;;;0.00;0.00;;;;;;;;5095501;28;10038;-81
2024/03/02 08:57:29;;;;;;;;;1.00;1.00;;;;;;;;5094191;28;9950;-80
2024/03/02 09:00:00;;;;;;;;;0.00;0.00;;;;;;;;5093830;28;9920;-76
2024/03/02 09:02:27;;;;;;;;;0.00;0.00;;;;;;;;5091856;28;9927;-77
2024/03/02 09:04:55;;;;;;;;;0.00;0.00;;;;;;;;5087255;28;10170;-76
2024/03/02 09:07:23;;;;;;;;;2.50;1.00;;;;;;;;5087748;28;9755;-78
2024/03/02 09:09:50;;;;;;;;;1.00;0.50;;;;;;;;5090690;28;9919;-77
2024/03/02 09:12:18;;;;;;;;;0.00;0.00;;;;;;;;5089423;28;9837;-77
2024/03/02 09:14:45;;;;;;;;;0.00;0.00;;;;;;;;5096169;28;9848;-77
2024/03/02 09:17:13;;;;;;;;;0.50;0.50;;;;;;;;5092544;28;11010;-79
2024/03/02 09:19:41;;;;;;;;;2.00;2.00;;;;;;;;5088502;28;9915;-78
2024/03/02 09:22:09;;;;;;;;;0.75;0.00;;;;;;;;5087656;28;9906;-78
2024/03/02 09:24:38;;;;;;;;;0.75;0.75;;;;;;;;5088499;28;9958;-79
2024/03/02 09:27:05;;;;;;;;;2.00;0.00;;;;;;;;5088461;28;9892;-76
2024/03/02 09:29:33;;;;;;;;;0.00;0.00;;;;;;;;5089927;28;10042;-78
2024/03/02 09:32:00;;;;;;;;;0.00;0.00;;;;;;;;5088462;28;9877;-82
2024/03/02 09:34:29;;;;;;;;;0.00;0.00;;;;;;;;5093362;28;10030;-84
2024/03/02 09:36:56;;;;;;;;;0.00;0.00;;;;;;;;5092425;28;10033;-80
2024/03/02 09:39:25;;;;;;;;;0.50;0.50;;;;;;;;5090512;28;9993;-79
2024/03/02 09:41:54;;;;;;;;;1.00;1.00;;;;;;;;5088768;28;10014;-81
2024/03/02 09:44:22;;;;;;;;;1.00;1.00;;;;;;;;5088145;28;10562;-79
2024/03/02 09:46:50;;;;;;;;;2.00;2.00;;;;;;;;5088242;28;10715;-81
2024/03/02 09:49:17;;;;;;;;;2.00;0.75;;;;;;;;5088507;28;10705;-79
2024/03/02 09:51:47;;;;;;;;;1.00;1.00;;;;;;;;5088795;28;10602;-78
2024/03/02 09:54:14;;;;;;;;;1.50;1.50;;;;;;;;5091509;28;10290;-76
2024/03/02 09:56:42;;;;;;;;;1.00;1.00;;;;;;;;5089937;28;10029;-77
2024/03/02 09:59:10;;;;;;;;;2.00;1.00;;;;;;;;5087109;28;9923;-78
2024/03/02 10:01:37;;;;;;;;;1.50;0.00;;;;;;;;5086781;28;9966;-78
2024/03/02 10:04:11;;;;;;;;;1.00;1.00;;;;;;;;5087507;28;9919;-77
2024/03/02 10:06:39;;;;;;;;;1.00;1.00;;;;;;;;5076065;28;9956;-80
2024/03/02 10:09:06;;;;;;;;;1.00;1.00;;;;;;;;5088349;28;10680;-79
2024/03/02 10:11:39;;;;;;;;;1.00;1.00;;;;;;;;5100092;28;9967;-80
2024/03/02 10:14:08;;;;;;;;;0.00;0.00;;;;;;;;5087280;28;10629;-82
2024/03/02 10:16:41;;;;;;;;;0.75;0.00;;;;;;;;5088091;28;10289;-76
2024/03/02 10:19:19;;;;;;;;;0.00;0.00;;;;;;;;5087961;28;10676;-79
2024/03/02 10:21:46;;;;;;;;;0.00;0.00;;;;;;;;5088341;28;10598;-80
2024/03/02 10:24:26;;;;;;;;;0.75;0.00;;;;;;;;5089208;28;9942;-80
2024/03/02 10:26:57;;;;;;;;;1.25;1.00;;;;;;;;5090026;28;9758;-78
2024/03/02 10:29:32;;;;;;;;;1.50;1.50;;;;;;;;5088972;28;9772;-79
2024/03/02 10:32:06;;;;;;;;;0.00;0.00;;;;;;;;5086282;28;9776;-78
2024/03/02 10:34:42;;;;;;;;;0.00;0.00;;;;;;;;5091636;28;9856;-80
2024/03/02 10:37:13;;;;;;;;;0.00;0.00;;;;;;;;5085823;28;9834;-77
2024/03/02 10:39:44;;;;;;;;;0.00;0.00;;;;;;;;5086420;28;9855;-80
2024/03/02 10:42:14;;;;;;;;;0.00;0.00;;;;;;;;5091576;28;9944;-77
2024/03/02 10:44:41;;;;;;;;;0.00;0.00;;;;;;;;5091316;28;9752;-77
2024/03/02 10:47:18;;;;;;;;;0.50;0.50;;;;;;;;5092384;28;9721;-78
2024/03/02 10:49:48;;;;;;;;;0.00;0.00;;;;;;;;5092497;28;9761;-82
2024/03/02 10:52:15;;;;;;;;;0.25;0.25;;;;;;;;5092781;28;9717;-78
2024/03/02 10:54:43;;;;;;;;;1.25;0.50;;;;;;;;5091365;28;9726;-79
2024/03/02 10:57:13;;;;;;;;;1.50;0.25;;;;;;;;5091853;28;9738;-77
2024/03/02 10:59:50;;;;;;;;;1.00;0.00;;;;;;;;5092948;28;9856;-77
2024/03/02 11:02:24;;;;;;;;;2.00;2.00;;;;;;;;5090959;28;9761;-79
2024/03/02 11:04:55;;;;;;;;;1.00;1.00;;;;;;;;5090541;28;9605;-80
2024/03/02 11:07:24;;;;;;;;;1.50;0.75;;;;;;;;5089943;28;9715;-79
2024/03/02 11:09:57;;;;;;;;;0.00;0.00;;;;;;;;5090567;28;9665;-78
2024/03/02 11:12:29;;;;;;;;;3.50;1.75;;;;;;;;5090453;28;10337;-78
2024/03/02 11:14:57;;;;;;;;;3.00;2.00;;;;;;;;5091011;28;9689;-80
2024/03/02 11:17:29;;;;;;;;;4.00;1.00;;;;;;;;5090165;28;9755;-79
2024/03/02 11:19:57;;;;;;;;;1.50;1.50;;;;;;;;5091783;28;9609;-79
2024/03/02 11:22:24;;;;;;;;;1.00;1.00;;;;;;;;5091182;28;9574;-77
2024/03/02 11:24:52;;;;;;;;;1.50;1.50;;;;;;;;5092910;28;9613;-78
2024/03/02 11:28:00;;;;;;;;;1.25;1.25;;;;;;;;5091937;28;9583;-78
2024/03/02 11:30:53;;;;;;;;;1.75;1.75;;;;;;;;5090009;28;9542;-78
2024/03/02 11:33:31;;;;;;;;;2.50;0.00;;;;;;;;5090421;28;9460;-81
2024/03/02 11:36:01;;;;;;;;;1.00;1.00;;;;;;;;5090785;28;9475;-78
2024/03/02 11:38:32;;;;;;;;;1.00;1.00;;;;;;;;5089876;28;9655;-78
2024/03/02 11:41:01;;;;;;;;;2.50;1.00;;;;;;;;5090514;28;9567;-78
2024/03/02 11:43:29;;;;;;;;;1.00;1.00;;;;;;;;5089913;28;9554;-81
2024/03/02 11:46:04;;;;;;;;;1.00;1.00;;;;;;;;5090322;28;10369;-78
2024/03/02 11:48:32;;;;;;;;;1.50;1.50;;;;;;;;5090491;28;9536;-78
2024/03/02 11:51:00;;;;;;;;;2.33;1.00;;;;;;;;5090012;28;9495;-78
2024/03/02 11:53:29;;;;;;;;;1.50;1.50;;;;;;;;5089252;28;9396;-79
2024/03/02 11:55:57;;;;;;;;;3.00;1.00;;;;;;;;5087051;28;9486;-80
2024/03/02 11:58:26;;;;;;;;;1.00;1.00;;;;;;;;5090105;28;9402;-78
2024/03/02 12:00:54;;;;;;;;;1.00;1.00;;;;;;;;5089687;28;9235;-78
2024/03/02 12:03:25;;;;;;;;;0.00;0.00;;;;;;;;5089458;28;9338;-79
2024/03/02 12:05:54;;;;;;;;;1.25;1.25;;;;;;;;5088717;28;9333;-78
2024/03/02 12:08:23;;;;;;;;;2.25;1.00;;;;;;;;5090356;28;9476;-78
2024/03/02 12:11:01;;;;;;;;;1.00;1.00;;;;;;;;5090910;28;9373;-76
2024/03/02 12:13:33;;;;;;;;;5.00;2.00;;;;;;;;5090462;28;9464;-79
2024/03/02 12:16:00;;;;;;;;;2.00;2.00;;;;;;;;5091352;28;10066;-77
2024/03/02 12:18:28;;;;;;;;;2.50;1.00;;;;;;;;5091935;28;9721;-77
2024/03/02 12:20:58;;;;;;;;;5.25;3.00;;;;;;;;5092897;28;9701;-79
2024/03/02 12:23:25;;;;;;;;;1.75;0.75;;;;;;;;5093660;28;10295;-78
2024/03/02 12:25:53;;;;;;;;;2.00;2.00;;;;;;;;5094857;28;9560;-77
2024/03/02 12:28:21;;;;;;;;;2.25;2.25;;;;;;;;5095231;28;9871;-77
2024/03/02 12:30:48;;;;;;;;;2.00;2.00;;;;;;;;5087921;28;9728;-78
2024/03/02 12:33:16;;;;;;;;;2.25;1.75;;;;;;;;5095767;28;9672;-77
2024/03/02 12:35:43;;;;;;;;;2.00;2.00;;;;;;;;5096840;28;9653;-77
2024/03/02 12:38:12;;;;;;;;;3.00;1.00;;;;;;;;5093251;28;9680;-76
2024/03/02 12:40:39;;;;;;;;;2.00;2.00;;;;;;;;5091057;28;9850;-77
2024/03/02 12:43:07;;;;;;;;;2.50;1.50;;;;;;;;5089584;28;10331;-81
2024/03/02 12:45:35;;;;;;;;;1.50;1.50;;;;;;;;5090513;28;9636;-82
2024/03/02 12:48:03;;;;;;;;;0.25;0.25;;;;;;;;5091493;28;9685;-78
2024/03/02 12:50:37;;;;;;;;;1.00;1.00;;;;;;;;5092590;28;9647;-80
2024/03/02 12:53:05;;;;;;;;;1.00;1.00;;;;;;;;5085832;28;9695;-77
2024/03/02 12:55:36;;;;;;;;;2.50;2.00;;;;;;;;5090275;28;9744;-79
2024/03/02 12:58:07;;;;;;;;;2.00;2.00;;;;;;;;5090458;28;9664;-77
2024/03/02 13:00:36;;;;;;;;;2.00;2.00;;;;;;;;5090308;28;9557;-77
2024/03/02 13:03:07;;;;;;;;;2.75;2.75;;;;;;;;5088786;28;10418;-77
2024/03/02 13:05:35;;;;;;;;;1.00;1.00;;;;;;;;5089664;28;9711;-77
2024/03/02 13:08:06;;;;;;;;;3.25;3.25;;;;;;;;5088701;28;9716;-77
2024/03/02 13:10:45;;;;;;;;;2.50;2.50;;;;;;;;5090218;28;9847;-77
2024/03/02 13:13:12;;;;;;;;;3.00;3.00;;;;;;;;5090125;28;9689;-77
2024/03/02 13:15:42;;;;;;;;;4.50;3.00;;;;;;;;5089479;28;9793;-79
2024/03/02 13:18:09;;;;;;;;;2.00;2.00;;;;;;;;5089316;28;9874;-80
2024/03/02 13:20:37;;;;;;;;;2.50;2.50;;;;;;;;5087862;28;9673;-78
2024/03/02 13:23:07;;;;;;;;;2.00;2.00;;;;;;;;5088988;28;9867;-80
2024/03/02 13:25:37;;;;;;;;;5.25;5.25;;;;;;;;5088293;28;9674;-76
2024/03/02 13:28:09;;;;;;;;;2.75;2.75;;;;;;;;5088034;28;9881;-79
2024/03/02 13:30:36;;;;;;;;;0.25;0.25;;;;;;;;5087828;28;10006;-77
2024/03/02 13:33:03;;;;;;;;;1.00;1.00;;;;;;;;5088404;28;9967;-79
2024/03/02 13:35:31;;;;;;;;;0.00;0.00;;;;;;;;5088103;28;9936;-83
2024/03/02 13:37:58;;;;;;;;;1.25;0.00;;;;;;;;5088225;28;9873;-78
2024/03/02 13:40:25;;;;;;;;;0.00;0.00;;;;;;;;5087709;28;10074;-78
2024/03/02 13:42:53;;;;;;;;;0.00;0.00;;;;;;;;5088316;28;9772;-79
2024/03/02 13:45:22;;;;;;;;;0.00;0.00;;;;;;;;5087121;28;9863;-78
2024/03/02 13:47:49;;;;;;;;;1.00;1.00;;;;;;;;5087751;28;9712;-75
2024/03/02 13:50:17;;;;;;;;;1.00;1.00;;;;;;;;5088162;28;9833;-77
2024/03/02 13:52:46;;;;;;;;;2.25;0.00;;;;;;;;5087987;28;9901;-76
2024/03/02 13:55:14;;;;;;;;;2.00;0.25;;;;;;;;5088539;28;9900;-77
2024/03/02 13:57:41;;;;;;;;;1.00;1.00;;;;;;;;5087812;28;9814;-77
2024/03/02 14:00:11;;;;;;;;;2.00;2.00;;;;;;;;5087548;28;10035;-77
2024/03/02 14:02:40;;;;;;;;;1.50;1.50;;;;;;;;5088309;28;10029;-78
2024/03/02 14:05:10;;;;;;;;;0.50;0.50;;;;;;;;5086849;28;10134;-77
2024/03/02 14:07:39;;;;;;;;;1.00;1.00;;;;;;;;5087760;28;9902;-78
2024/03/02 14:10:06;;;;;;;;;0.00;0.00;;;;;;;;5088356;28;10077;-77
2024/03/02 14:12:36;;;;;;;;;0.00;0.00;;;;;;;;5089134;28;9881;-77
2024/03/02 14:15:03;;;;;;;;;1.25;1.25;;;;;;;;5090473;28;9859;-78
2024/03/02 14:17:31;;;;;;;;;0.00;0.00;;;;;;;;5091211;28;10066;-77
2024/03/02 14:20:04;;;;;;;;;1.75;1.75;;;;;;;;5094709;28;9841;-77
2024/03/02 14:22:31;;;;;;;;;1.50;1.00;;;;;;;;5094670;28;10090;-77
2024/03/02 14:24:59;;;;;;;;;2.00;2.00;;;;;;;;5094606;28;10031;-77
2024/03/02 14:27:26;;;;;;;;;2.00;2.00;;;;;;;;5093487;28;9917;-77
2024/03/02 14:29:53;;;;;;;;;2.25;2.25;;;;;;;;5093107;28;9927;-76
2024/03/02 14:32:21;;;;;;;;;1.00;1.00;;;;;;;;5090953;28;9813;-77
2024/03/02 14:34:48;;;;;;;;;1.00;1.00;;;;;;;;5104630;28;10560;-75
2024/03/02 14:37:17;;;;;;;;;4.00;2.00;;;;;;;;5091511;28;9930;-77
2024/03/02 14:39:44;;;;;;;;;1.00;1.00;;;;;;;;5091813;28;9852;-76
2024/03/02 14:42:11;;;;;;;;;2.50;2.50;;;;;;;;5091677;28;9717;-77
2024/03/02 14:44:38;;;;;;;;;3.00;3.00;;;;;;;;5091194;28;9879;-76
2024/03/02 14:47:07;;;;;;;;;4.00;1.75;;;;;;;;5091479;28;9763;-77
2024/03/02 14:49:37;;;;;;;;;1.00;1.00;;;;;;;;5091675;28;10580;-75
2024/03/02 14:52:06;;;;;;;;;3.50;2.50;;;;;;;;5091558;28;9464;-76
2024/03/02 14:54:35;;;;;;;;;2.00;2.00;;;;;;;;5090970;28;9833;-76
2024/03/02 14:57:03;;;;;;;;;1.00;1.00;;;;;;;;5092389;28;9522;-76
2024/03/02 14:59:30;;;;;;;;;1.00;1.00;;;;;;;;5091954;28;9634;-76